Time;durP1;ratioP1;P1;durP2;ratioP2;P2;SDS_P1;SDS_P2;PMS_P1;PMS_P2;Temp;Humidity;BMP_temperature;BMP_pressure;BME280_temperature;BME280_humidity;BME280_pressure;Samples;Min_cycle;Max_cycle;Signal;HPM_P1;HPM_P2
2023/07/17 00:00:03;;;;;;;5.90;1.65;;;;;;;;;;5094387;28;20092;-66
2023/07/17 00:02:30;;;;;;;7.30;1.65;;;;;;;;;;5090371;27;20127;-63
2023/07/17 00:04:56;;;;;;;6.78;1.85;;;;;;;;;;5083897;27;20052;-64
2023/07/17 00:07:23;;;;;;;7.05;1.75;;;;;;;;;;5094892;27;20056;-66
2023/07/17 00:09:49;;;;;;;5.28;1.55;;;;;;;;;;5097040;27;20640;-66
2023/07/17 00:12:16;;;;;;;6.75;1.67;;;;;;;;;;5085994;28;20613;-65
2023/07/17 00:14:42;;;;;;;9.90;2.42;;;;;;;;;;5087596;27;20136;-67
2023/07/17 00:17:08;;;;;;;10.57;2.65;;;;;;;;;;5098336;28;20098;-61
2023/07/17 00:19:37;;;;;;;7.35;2.03;;;;;;;;;;5095313;28;20049;-65
2023/07/17 00:22:04;;;;;;;4.40;1.70;;;;;;;;;;5098174;27;20052;-66
2023/07/17 00:24:30;;;;;;;7.05;1.58;;;;;;;;;;5096755;27;20076;-62
2023/07/17 00:26:57;;;;;;;6.50;2.13;;;;;;;;;;5101435;27;20159;-66
2023/07/17 00:29:28;;;;;;;7.40;1.85;;;;;;;;;;5094976;28;20129;-66
2023/07/17 00:31:55;;;;;;;5.32;1.70;;;;;;;;;;5100353;27;20048;-63
2023/07/17 00:34:21;;;;;;;4.63;1.67;;;;;;;;;;5099451;27;20053;-66
2023/07/17 00:36:48;;;;;;;5.55;1.40;;;;;;;;;;5087120;27;20110;-67
2023/07/17 00:39:14;;;;;;;3.90;1.70;;;;;;;;;;5090539;27;20109;-65
2023/07/17 00:41:41;;;;;;;7.68;1.83;;;;;;;;;;5090216;27;20483;-66
2023/07/17 00:44:07;;;;;;;7.15;1.70;;;;;;;;;;5100675;27;20180;-64
2023/07/17 00:46:34;;;;;;;5.25;1.52;;;;;;;;;;5105147;28;20139;-66
2023/07/17 00:49:01;;;;;;;2.83;1.27;;;;;;;;;;5101635;27;20811;-61
2023/07/17 00:51:28;;;;;;;4.93;1.60;;;;;;;;;;5094438;27;20050;-64
2023/07/17 00:53:55;;;;;;;7.30;1.65;;;;;;;;;;5101384;27;20574;-66
2023/07/17 00:56:22;;;;;;;3.30;1.70;;;;;;;;;;5084574;27;20483;-60
2023/07/17 00:58:48;;;;;;;5.22;1.83;;;;;;;;;;5101068;27;20554;-63
2023/07/17 01:01:14;;;;;;;6.20;2.05;;;;;;;;;;5087833;28;20588;-63
2023/07/17 01:03:42;;;;;;;4.50;1.30;;;;;;;;;;5096448;27;20510;-63
2023/07/17 01:06:08;;;;;;;5.50;1.52;;;;;;;;;;5086854;27;20052;-59
2023/07/17 01:08:35;;;;;;;11.27;1.73;;;;;;;;;;5092234;28;20138;-66
2023/07/17 01:11:01;;;;;;;9.75;2.45;;;;;;;;;;5094853;28;20048;-63
2023/07/17 01:13:28;;;;;;;6.00;1.70;;;;;;;;;;5089997;27;20056;-61
2023/07/17 01:15:55;;;;;;;4.70;1.40;;;;;;;;;;5091346;27;20052;-65
2023/07/17 01:18:22;;;;;;;3.67;1.58;;;;;;;;;;5096426;28;20052;-66
2023/07/17 01:20:48;;;;;;;5.65;2.08;;;;;;;;;;5085032;28;20441;-64
2023/07/17 01:23:15;;;;;;;5.93;1.70;;;;;;;;;;5090205;27;20134;-65
2023/07/17 01:25:41;;;;;;;4.28;1.58;;;;;;;;;;5084036;27;20106;-65
2023/07/17 01:28:08;;;;;;;5.18;1.50;;;;;;;;;;5090044;27;20059;-62
2023/07/17 01:30:34;;;;;;;9.00;1.60;;;;;;;;;;5103504;27;20052;-62
2023/07/17 01:33:00;;;;;;;8.10;2.08;;;;;;;;;;5100468;27;20541;-66
2023/07/17 01:35:27;;;;;;;4.32;1.67;;;;;;;;;;5089896;27;20105;-65
2023/07/17 01:37:53;;;;;;;3.97;1.52;;;;;;;;;;5103428;28;20063;-61
2023/07/17 01:40:19;;;;;;;4.70;1.48;;;;;;;;;;5102908;27;20055;-65
2023/07/17 01:42:46;;;;;;;6.07;1.85;;;;;;;;;;5097197;27;20076;-61
2023/07/17 01:45:12;;;;;;;2.75;1.38;;;;;;;;;;5085134;27;20143;-61
2023/07/17 01:47:39;;;;;;;4.68;1.50;;;;;;;;;;5087102;27;20685;-62
2023/07/17 01:50:05;;;;;;;3.92;1.27;;;;;;;;;;5102333;27;20457;-63
2023/07/17 01:52:32;;;;;;;6.47;1.58;;;;;;;;;;5114164;27;20478;-64
2023/07/17 01:54:58;;;;;;;4.65;1.85;;;;;;;;;;5092491;27;20048;-64
2023/07/17 01:57:25;;;;;;;3.28;1.30;;;;;;;;;;5090845;28;20044;-65
2023/07/17 01:59:51;;;;;;;6.85;1.63;;;;;;;;;;5087871;28;20164;-65
2023/07/17 02:02:17;;;;;;;6.63;1.58;;;;;;;;;;5101413;28;20056;-65
2023/07/17 02:04:44;;;;;;;3.78;1.27;;;;;;;;;;5087473;27;20059;-66
2023/07/17 02:07:10;;;;;;;8.57;2.05;;;;;;;;;;5099307;28;20062;-65
2023/07/17 02:09:37;;;;;;;3.97;1.13;;;;;;;;;;5091660;27;20064;-66
2023/07/17 02:12:04;;;;;;;6.18;1.42;;;;;;;;;;5100157;27;20087;-65
2023/07/17 02:14:30;;;;;;;5.70;1.35;;;;;;;;;;5094448;27;20135;-59
2023/07/17 02:16:58;;;;;;;6.93;2.08;;;;;;;;;;5088060;27;20612;-60
2023/07/17 02:19:24;;;;;;;5.50;1.83;;;;;;;;;;5091850;28;20565;-66
2023/07/17 02:21:51;;;;;;;5.00;1.50;;;;;;;;;;5092722;28;20510;-66
2023/07/17 02:24:17;;;;;;;3.75;1.55;;;;;;;;;;5093615;27;20160;-66
2023/07/17 02:26:44;;;;;;;4.88;1.52;;;;;;;;;;5102730;27;20059;-65
2023/07/17 02:29:10;;;;;;;8.98;2.05;;;;;;;;;;5102065;28;20052;-65
2023/07/17 02:31:36;;;;;;;7.35;2.13;;;;;;;;;;5096193;27;20052;-66
2023/07/17 02:34:03;;;;;;;4.57;1.77;;;;;;;;;;5102617;27;20059;-62
2023/07/17 02:36:29;;;;;;;4.32;1.67;;;;;;;;;;5102352;27;20048;-63
2023/07/17 02:38:56;;;;;;;7.50;1.85;;;;;;;;;;5103510;28;20082;-65
2023/07/17 02:41:23;;;;;;;6.15;1.63;;;;;;;;;;5098532;27;20060;-63
2023/07/17 02:43:51;;;;;;;6.43;1.60;;;;;;;;;;5092686;27;20056;-66
2023/07/17 02:46:17;;;;;;;7.63;1.85;;;;;;;;;;5083338;27;20518;-65
2023/07/17 02:48:44;;;;;;;8.98;2.15;;;;;;;;;;5088945;27;20580;-66
2023/07/17 02:51:11;;;;;;;4.43;1.85;;;;;;;;;;5094805;27;20082;-60
2023/07/17 02:53:37;;;;;;;7.80;1.80;;;;;;;;;;5101499;27;20874;-60
2023/07/17 02:56:04;;;;;;;3.35;1.65;;;;;;;;;;5098241;27;20060;-66
2023/07/17 02:58:30;;;;;;;8.30;1.58;;;;;;;;;;5086114;27;20165;-65
2023/07/17 03:00:58;;;;;;;4.55;1.77;;;;;;;;;;5092086;28;20139;-66
2023/07/17 03:03:25;;;;;;;4.40;2.53;;;;;;;;;;5100514;28;20055;-60
2023/07/17 03:05:55;;;;;;;10.20;2.60;;;;;;;;;;5095938;27;20061;-66
2023/07/17 03:08:21;;;;;;;8.30;2.22;;;;;;;;;;5090838;27;20048;-66
2023/07/17 03:10:48;;;;;;;5.55;2.00;;;;;;;;;;5098079;27;20059;-65
2023/07/17 03:13:14;;;;;;;4.47;1.38;;;;;;;;;;5085963;28;20062;-65
2023/07/17 03:15:40;;;;;;;7.28;1.85;;;;;;;;;;5103798;27;20139;-66
2023/07/17 03:18:07;;;;;;;4.25;1.77;;;;;;;;;;5114832;27;20052;-63
2023/07/17 03:20:34;;;;;;;14.70;2.45;;;;;;;;;;5106635;27;20117;-63
2023/07/17 03:23:00;;;;;;;9.18;1.95;;;;;;;;;;5101692;27;20048;-66
2023/07/17 03:25:27;;;;;;;6.15;2.15;;;;;;;;;;5101360;28;20065;-64
2023/07/17 03:27:53;;;;;;;4.80;1.88;;;;;;;;;;5105968;28;20099;-65
2023/07/17 03:30:20;;;;;;;10.90;2.10;;;;;;;;;;5091853;27;20052;-65
2023/07/17 03:32:46;;;;;;;5.78;2.67;;;;;;;;;;5090012;28;20486;-65
2023/07/17 03:35:13;;;;;;;4.65;1.55;;;;;;;;;;5090470;28;20117;-63
2023/07/17 03:37:39;;;;;;;7.43;2.40;;;;;;;;;;5090252;27;20131;-59
2023/07/17 03:40:07;;;;;;;4.78;2.10;;;;;;;;;;5101688;27;20075;-63
2023/07/17 03:42:34;;;;;;;4.78;2.03;;;;;;;;;;5086525;28;20049;-65
2023/07/17 03:45:00;;;;;;;6.63;1.90;;;;;;;;;;5098339;28;20562;-66
2023/07/17 03:47:26;;;;;;;6.88;2.10;;;;;;;;;;5072180;28;20140;-65
2023/07/17 03:49:53;;;;;;;4.68;2.10;;;;;;;;;;5092963;27;20468;-63
2023/07/17 03:52:20;;;;;;;7.57;2.40;;;;;;;;;;5100548;27;20052;-65
2023/07/17 03:54:46;;;;;;;4.45;1.90;;;;;;;;;;5108529;27;20048;-62
2023/07/17 03:57:13;;;;;;;8.23;3.65;;;;;;;;;;5092424;27;20139;-61
2023/07/17 03:59:48;;;;;;;6.40;2.20;;;;;;;;;;5094389;27;20539;-63
2023/07/17 04:02:15;;;;;;;8.30;2.45;;;;;;;;;;5102958;28;20052;-66
2023/07/17 04:04:41;;;;;;;4.68;2.35;;;;;;;;;;5107702;27;20055;-63
2023/07/17 04:07:08;;;;;;;9.88;2.42;;;;;;;;;;5100994;27;20063;-66
2023/07/17 04:09:34;;;;;;;6.38;2.42;;;;;;;;;;5099823;27;20135;-66
2023/07/17 04:12:03;;;;;;;5.55;2.10;;;;;;;;;;5099039;27;20048;-66
2023/07/17 04:14:33;;;;;;;9.80;3.53;;;;;;;;;;5104509;27;20063;-66
2023/07/17 04:17:00;;;;;;;5.95;3.03;;;;;;;;;;5091285;27;20144;-66
2023/07/17 04:19:27;;;;;;;4.50;2.28;;;;;;;;;;5107872;27;20251;-66
2023/07/17 04:21:53;;;;;;;7.45;2.10;;;;;;;;;;5106867;27;20052;-63
2023/07/17 04:24:20;;;;;;;6.60;2.47;;;;;;;;;;5108115;28;20107;-59
2023/07/17 04:26:47;;;;;;;5.50;2.20;;;;;;;;;;5106734;28;20080;-66
2023/07/17 04:29:14;;;;;;;5.95;2.17;;;;;;;;;;5101105;27;20048;-64
2023/07/17 04:31:40;;;;;;;5.57;2.70;;;;;;;;;;5094345;27;20053;-67
2023/07/17 04:34:07;;;;;;;7.18;2.35;;;;;;;;;;5101615;27;20057;-62
2023/07/17 04:36:34;;;;;;;7.63;2.70;;;;;;;;;;5089269;27;20056;-63
2023/07/17 04:39:04;;;;;;;7.47;3.30;;;;;;;;;;5099083;28;20563;-66
2023/07/17 04:41:31;;;;;;;7.57;2.35;;;;;;;;;;5106376;27;20056;-64
2023/07/17 04:43:57;;;;;;;11.73;3.38;;;;;;;;;;5102236;27;20052;-64
2023/07/17 04:46:24;;;;;;;5.85;3.10;;;;;;;;;;5103250;27;20052;-63
2023/07/17 04:48:50;;;;;;;9.93;2.78;;;;;;;;;;5109769;27;20513;-66
2023/07/17 04:51:17;;;;;;;3.80;2.40;;;;;;;;;;5105917;27;20584;-66
2023/07/17 04:53:43;;;;;;;8.60;3.13;;;;;;;;;;5105347;27;20052;-62
2023/07/17 04:56:10;;;;;;;7.82;2.70;;;;;;;;;;5109943;27;20573;-63
2023/07/17 04:58:36;;;;;;;7.28;2.95;;;;;;;;;;5102445;28;20099;-66
2023/07/17 05:01:04;;;;;;;10.07;2.97;;;;;;;;;;5100364;27;20502;-66
2023/07/17 05:03:31;;;;;;;7.45;2.88;;;;;;;;;;5097986;27;20153;-63
2023/07/17 05:05:57;;;;;;;11.07;3.35;;;;;;;;;;5094503;28;20147;-62
2023/07/17 05:08:25;;;;;;;7.70;2.85;;;;;;;;;;5085433;28;20131;-63
2023/07/17 05:10:52;;;;;;;7.53;2.63;;;;;;;;;;5097059;28;20059;-62
2023/07/17 05:13:19;;;;;;;9.70;3.17;;;;;;;;;;5095564;27;20809;-63
2023/07/17 05:15:45;;;;;;;9.68;2.92;;;;;;;;;;5096625;27;20075;-66
2023/07/17 05:18:11;;;;;;;12.63;5.47;;;;;;;;;;5118650;27;20518;-65
2023/07/17 05:20:38;;;;;;;8.48;2.95;;;;;;;;;;5098384;27;20048;-60
2023/07/17 05:23:04;;;;;;;8.23;2.90;;;;;;;;;;5084795;28;20044;-66
2023/07/17 05:25:31;;;;;;;8.52;3.08;;;;;;;;;;5096660;28;20575;-64
2023/07/17 05:27:57;;;;;;;8.10;2.95;;;;;;;;;;5092740;28;20552;-64
2023/07/17 05:30:23;;;;;;;10.48;3.95;;;;;;;;;;5093910;27;20083;-66
2023/07/17 05:32:50;;;;;;;11.50;3.88;;;;;;;;;;5100318;27;20991;-65
2023/07/17 05:35:16;;;;;;;7.30;3.60;;;;;;;;;;5090674;28;20055;-62
2023/07/17 05:37:44;;;;;;;13.18;3.45;;;;;;;;;;5102038;27;20504;-65
2023/07/17 05:40:11;;;;;;;11.00;3.90;;;;;;;;;;5100614;27;20105;-63
2023/07/17 05:42:37;;;;;;;15.07;3.80;;;;;;;;;;5093027;27;20056;-66
2023/07/17 05:45:04;;;;;;;9.73;4.05;;;;;;;;;;5089850;28;20055;-65
2023/07/17 05:47:31;;;;;;;11.25;3.70;;;;;;;;;;5103221;27;20135;-66
2023/07/17 05:49:57;;;;;;;13.48;3.58;;;;;;;;;;5103658;27;20052;-61
2023/07/17 05:52:23;;;;;;;7.50;2.92;;;;;;;;;;5100521;27;20376;-70
2023/07/17 05:54:50;;;;;;;9.15;3.78;;;;;;;;;;5087493;27;20113;-67
2023/07/17 05:57:16;;;;;;;13.82;5.70;;;;;;;;;;5103821;28;20056;-66
2023/07/17 05:59:43;;;;;;;13.85;4.50;;;;;;;;;;5101723;27;20944;-66
2023/07/17 06:02:09;;;;;;;10.63;3.85;;;;;;;;;;5087527;27;20142;-63
2023/07/17 06:04:35;;;;;;;9.88;4.07;;;;;;;;;;5084032;28;20069;-67
2023/07/17 06:07:03;;;;;;;13.32;4.70;;;;;;;;;;5104527;28;20056;-67
2023/07/17 06:09:30;;;;;;;11.65;4.40;;;;;;;;;;5101633;27;20052;-60
2023/07/17 06:11:56;;;;;;;20.55;5.35;;;;;;;;;;5093395;27;20056;-66
2023/07/17 06:14:23;;;;;;;11.80;4.32;;;;;;;;;;5104078;27;20106;-66
2023/07/17 06:16:49;;;;;;;13.07;4.45;;;;;;;;;;5103523;28;20059;-65
2023/07/17 06:19:16;;;;;;;16.00;5.28;;;;;;;;;;5100030;27;20051;-66
2023/07/17 06:21:42;;;;;;;14.40;4.47;;;;;;;;;;5099517;27;20530;-66
2023/07/17 06:24:12;;;;;;;14.50;5.30;;;;;;;;;;5124140;27;20085;-66
2023/07/17 06:26:38;;;;;;;15.13;5.57;;;;;;;;;;5107582;27;20645;-66
2023/07/17 06:29:10;;;;;;;16.70;5.13;;;;;;;;;;5123059;27;20075;-64
2023/07/17 06:31:38;;;;;;;12.20;5.05;;;;;;;;;;5105748;27;20063;-67
2023/07/17 06:34:04;;;;;;;20.27;5.20;;;;;;;;;;5103990;28;20058;-69
2023/07/17 06:36:31;;;;;;;10.35;5.07;;;;;;;;;;5097225;27;20140;-64
2023/07/17 06:38:57;;;;;;;11.02;4.40;;;;;;;;;;5090076;27;20056;-72
2023/07/17 06:41:24;;;;;;;21.77;6.15;;;;;;;;;;5103522;27;20051;-63
2023/07/17 06:43:50;;;;;;;16.20;5.10;;;;;;;;;;5100893;27;20540;-64
2023/07/17 06:46:17;;;;;;;12.50;5.05;;;;;;;;;;5105406;28;20058;-62
2023/07/17 06:48:44;;;;;;;13.77;5.35;;;;;;;;;;5106065;27;20052;-61
2023/07/17 06:51:10;;;;;;;12.32;5.63;;;;;;;;;;5107025;27;20056;-60
2023/07/17 06:53:37;;;;;;;14.00;5.30;;;;;;;;;;5111850;27;20109;-64
2023/07/17 06:56:04;;;;;;;11.57;5.45;;;;;;;;;;5117552;27;20052;-61
2023/07/17 06:58:30;;;;;;;13.10;5.45;;;;;;;;;;5107559;27;20056;-60
2023/07/17 07:00:57;;;;;;;13.60;4.93;;;;;;;;;;5105971;28;20082;-62
2023/07/17 07:03:24;;;;;;;16.02;5.95;;;;;;;;;;5106276;27;20052;-64
2023/07/17 07:05:54;;;;;;;16.92;5.45;;;;;;;;;;5107226;27;20091;-63
2023/07/17 07:08:21;;;;;;;15.40;6.25;;;;;;;;;;5142901;27;20051;-65
2023/07/17 07:10:49;;;;;;;16.65;6.20;;;;;;;;;;5121131;27;20052;-64
2023/07/17 07:13:16;;;;;;;13.93;5.75;;;;;;;;;;5109385;27;20060;-65
2023/07/17 07:15:42;;;;;;;15.18;5.95;;;;;;;;;;5115419;27;20052;-61
2023/07/17 07:18:09;;;;;;;13.75;4.80;;;;;;;;;;5109157;28;20074;-60
2023/07/17 07:20:35;;;;;;;11.55;4.93;;;;;;;;;;5112364;27;20104;-64
2023/07/17 07:23:02;;;;;;;11.10;4.88;;;;;;;;;;5108997;27;20052;-62
2023/07/17 07:25:28;;;;;;;11.60;4.30;;;;;;;;;;5108777;27;20048;-64
2023/07/17 07:27:55;;;;;;;11.27;4.25;;;;;;;;;;5108012;27;20117;-64
2023/07/17 07:30:21;;;;;;;12.93;4.22;;;;;;;;;;5105881;28;20067;-64
2023/07/17 07:32:48;;;;;;;11.75;3.90;;;;;;;;;;5106234;27;20051;-63
2023/07/17 07:35:14;;;;;;;14.50;4.63;;;;;;;;;;5121013;27;20048;-63
2023/07/17 07:37:41;;;;;;;11.45;4.50;;;;;;;;;;5103651;27;20150;-65
2023/07/17 07:40:10;;;;;;;14.13;4.45;;;;;;;;;;5106625;27;20060;-61
2023/07/17 07:42:36;;;;;;;11.13;3.80;;;;;;;;;;5103918;27;20088;-63
2023/07/17 07:45:03;;;;;;;9.00;3.97;;;;;;;;;;5106158;28;20082;-64
2023/07/17 07:47:30;;;;;;;10.07;3.95;;;;;;;;;;5105937;27;20144;-61
2023/07/17 07:49:56;;;;;;;10.60;3.78;;;;;;;;;;5121407;27;20131;-64
2023/07/17 07:52:23;;;;;;;10.05;4.07;;;;;;;;;;5106950;27;20060;-63
2023/07/17 07:54:49;;;;;;;8.43;3.35;;;;;;;;;;5104889;27;20059;-64
2023/07/17 07:57:21;;;;;;;7.60;3.67;;;;;;;;;;5105635;27;20145;-64
2023/07/17 07:59:51;;;;;;;9.90;3.67;;;;;;;;;;5104772;27;20080;-64
2023/07/17 08:02:17;;;;;;;9.40;3.30;;;;;;;;;;5096626;27;20055;-64
2023/07/17 08:04:44;;;;;;;12.05;4.28;;;;;;;;;;5088761;28;20047;-63
2023/07/17 08:07:10;;;;;;;9.82;4.03;;;;;;;;;;5104586;27;20135;-62
2023/07/17 08:09:37;;;;;;;12.65;3.55;;;;;;;;;;5096925;27;20749;-61
2023/07/17 08:12:04;;;;;;;8.52;3.10;;;;;;;;;;5099552;27;20086;-61
2023/07/17 08:14:30;;;;;;;11.98;3.95;;;;;;;;;;5105440;27;20505;-63
2023/07/17 08:16:57;;;;;;;9.18;3.35;;;;;;;;;;5105266;27;20506;-65
2023/07/17 08:19:24;;;;;;;8.98;3.88;;;;;;;;;;5118998;27;20056;-65
2023/07/17 08:21:50;;;;;;;12.07;3.90;;;;;;;;;;5105535;27;20056;-63
2023/07/17 08:24:17;;;;;;;8.07;3.47;;;;;;;;;;5120247;27;20500;-62
2023/07/17 08:26:43;;;;;;;10.00;3.83;;;;;;;;;;5102047;27;20538;-61
2023/07/17 08:29:10;;;;;;;6.43;3.00;;;;;;;;;;5093555;27;20060;-65
2023/07/17 08:31:37;;;;;;;11.60;3.78;;;;;;;;;;5095088;28;20481;-64
2023/07/17 08:34:03;;;;;;;12.75;3.13;;;;;;;;;;5102411;27;20067;-63
2023/07/17 08:36:30;;;;;;;13.38;3.47;;;;;;;;;;5108721;27;20058;-64
2023/07/17 08:38:57;;;;;;;7.88;3.47;;;;;;;;;;5107109;27;20063;-65
2023/07/17 08:41:24;;;;;;;8.63;3.15;;;;;;;;;;5103759;27;20052;-63
2023/07/17 08:43:51;;;;;;;7.40;3.28;;;;;;;;;;5084001;28;20059;-64
2023/07/17 08:46:17;;;;;;;7.32;2.70;;;;;;;;;;5091027;27;20048;-65
2023/07/17 08:48:44;;;;;;;6.32;3.28;;;;;;;;;;5106554;27;20055;-62
2023/07/17 08:51:11;;;;;;;5.90;2.67;;;;;;;;;;5105219;28;20051;-65
2023/07/17 08:53:39;;;;;;;10.95;3.20;;;;;;;;;;5104919;28;20447;-64
2023/07/17 08:56:05;;;;;;;8.27;2.88;;;;;;;;;;5107133;27;20166;-64
2023/07/17 08:58:32;;;;;;;8.50;2.75;;;;;;;;;;5095597;27;20146;-64
2023/07/17 09:00:59;;;;;;;8.18;2.72;;;;;;;;;;5087186;28;20478;-63
2023/07/17 09:03:25;;;;;;;13.15;2.22;;;;;;;;;;5094093;27;20524;-64
2023/07/17 09:05:52;;;;;;;5.50;2.33;;;;;;;;;;5097305;27;20510;-63
2023/07/17 09:08:19;;;;;;;3.67;2.08;;;;;;;;;;5101982;27;20060;-63
2023/07/17 09:10:45;;;;;;;11.27;2.80;;;;;;;;;;5103585;27;20052;-64
2023/07/17 09:13:12;;;;;;;6.22;2.40;;;;;;;;;;5103610;27;20052;-64
2023/07/17 09:15:38;;;;;;;10.70;2.42;;;;;;;;;;5101930;27;20060;-62
2023/07/17 09:18:05;;;;;;;2.85;1.98;;;;;;;;;;5099219;27;20098;-62
2023/07/17 09:20:32;;;;;;;4.07;1.83;;;;;;;;;;5101334;28;20048;-64
2023/07/17 09:22:59;;;;;;;4.90;2.03;;;;;;;;;;5100710;27;20139;-61
2023/07/17 09:25:27;;;;;;;3.50;1.77;;;;;;;;;;5097226;27;20060;-62
2023/07/17 09:27:54;;;;;;;2.90;1.58;;;;;;;;;;5103087;27;20051;-63
2023/07/17 09:30:21;;;;;;;5.63;2.10;;;;;;;;;;5097941;27;20096;-64
2023/07/17 09:32:49;;;;;;;5.95;1.80;;;;;;;;;;5091315;27;20052;-64
2023/07/17 09:35:19;;;;;;;3.05;1.40;;;;;;;;;;5098312;28;20147;-64
2023/07/17 09:37:46;;;;;;;9.60;2.47;;;;;;;;;;5101420;27;20126;-63
2023/07/17 09:40:15;;;;;;;9.70;3.55;;;;;;;;;;5103181;28;20873;-64
2023/07/17 09:42:43;;;;;;;8.63;2.28;;;;;;;;;;5101345;27;20064;-62
2023/07/17 09:45:14;;;;;;;7.03;1.88;;;;;;;;;;5099008;28;20129;-63
2023/07/17 09:47:41;;;;;;;5.90;1.92;;;;;;;;;;5103027;27;20052;-64
2023/07/17 09:50:08;;;;;;;2.15;1.60;;;;;;;;;;5106865;27;20056;-63
2023/07/17 09:52:34;;;;;;;4.93;1.70;;;;;;;;;;5091834;27;20137;-64
2023/07/17 09:55:01;;;;;;;4.10;1.83;;;;;;;;;;5088377;27;20146;-62
2023/07/17 09:57:33;;;;;;;3.42;1.48;;;;;;;;;;5095982;27;20044;-64
2023/07/17 10:00:05;;;;;;;8.85;2.05;;;;;;;;;;5102873;28;20143;-63
2023/07/17 10:02:38;;;;;;;5.78;2.47;;;;;;;;;;5114261;27;20059;-62
2023/07/17 10:05:05;;;;;;;7.65;2.75;;;;;;;;;;5099010;27;20056;-61
2023/07/17 10:07:39;;;;;;;8.60;2.38;;;;;;;;;;5103804;27;21287;-63
2023/07/17 10:10:06;;;;;;;4.00;1.88;;;;;;;;;;5105150;27;20145;-64
2023/07/17 10:12:34;;;;;;;6.07;2.05;;;;;;;;;;5104789;27;20086;-59
2023/07/17 10:15:01;;;;;;;5.95;2.05;;;;;;;;;;5105823;27;20043;-64
2023/07/17 10:17:30;;;;;;;5.15;2.08;;;;;;;;;;5104725;27;20514;-60
2023/07/17 10:19:58;;;;;;;7.03;2.30;;;;;;;;;;5102801;27;20051;-64
2023/07/17 10:22:43;;;;;;;7.28;2.65;;;;;;;;;;5104291;27;20078;-60
2023/07/17 10:25:17;;;;;;;6.45;2.47;;;;;;;;;;5102817;27;20126;-64
2023/07/17 10:27:47;;;;;;;9.88;2.35;;;;;;;;;;5104634;27;20048;-63
2023/07/17 10:30:25;;;;;;;8.10;3.00;;;;;;;;;;5101926;27;20129;-63
2023/07/17 10:33:01;;;;;;;8.95;3.13;;;;;;;;;;5097978;27;20056;-63
2023/07/17 10:35:31;;;;;;;6.55;2.65;;;;;;;;;;5103318;27;20054;-65
2023/07/17 10:38:08;;;;;;;7.35;2.97;;;;;;;;;;5104603;27;20573;-65
2023/07/17 10:40:35;;;;;;;4.53;1.98;;;;;;;;;;5109529;27;20052;-65
2023/07/17 10:43:12;;;;;;;6.30;2.33;;;;;;;;;;5106594;27;20467;-65
2023/07/17 10:45:39;;;;;;;4.28;2.35;;;;;;;;;;5088759;28;20059;-67
2023/07/17 10:48:08;;;;;;;7.90;3.08;;;;;;;;;;5105140;28;20853;-65
2023/07/17 10:50:35;;;;;;;4.93;2.47;;;;;;;;;;5087903;28;20048;-64
2023/07/17 10:53:05;;;;;;;4.03;2.33;;;;;;;;;;5105131;27;20056;-64
2023/07/17 10:55:32;;;;;;;2.55;1.77;;;;;;;;;;5104402;27;20139;-64
2023/07/17 10:58:00;;;;;;;6.53;2.55;;;;;;;;;;5107585;27;20062;-65
2023/07/17 11:00:27;;;;;;;5.32;1.88;;;;;;;;;;5107094;27;20051;-64
2023/07/17 11:02:56;;;;;;;3.83;1.88;;;;;;;;;;5119500;27;20081;-62
2023/07/17 11:05:23;;;;;;;7.68;2.63;;;;;;;;;;5099639;27;20271;-66
2023/07/17 11:07:50;;;;;;;10.13;3.83;;;;;;;;;;5099904;27;20114;-63
2023/07/17 11:10:16;;;;;;;9.27;3.35;;;;;;;;;;5099645;27;20505;-64
2023/07/17 11:12:43;;;;;;;8.65;3.38;;;;;;;;;;5099297;27;20064;-65
2023/07/17 11:15:14;;;;;;;5.85;2.40;;;;;;;;;;5125002;27;20060;-60
2023/07/17 11:17:41;;;;;;;14.55;3.15;;;;;;;;;;5101742;27;20063;-61
2023/07/17 11:20:08;;;;;;;5.55;2.03;;;;;;;;;;5103241;27;20052;-62
2023/07/17 11:22:36;;;;;;;4.60;1.65;;;;;;;;;;5102151;28;20171;-62
2023/07/17 11:25:03;;;;;;;6.20;2.10;;;;;;;;;;5103585;27;20508;-62
2023/07/17 11:27:30;;;;;;;5.07;2.50;;;;;;;;;;5102481;27;20055;-63
2023/07/17 11:29:56;;;;;;;4.80;1.95;;;;;;;;;;5107450;27;20048;-63
2023/07/17 11:32:26;;;;;;;3.63;1.83;;;;;;;;;;5105785;27;20538;-62
2023/07/17 11:35:04;;;;;;;4.15;1.98;;;;;;;;;;5088603;28;20087;-62
2023/07/17 11:37:34;;;;;;;4.72;2.70;;;;;;;;;;5105194;28;20131;-59
2023/07/17 11:40:07;;;;;;;7.60;2.70;;;;;;;;;;5106425;27;20059;-61
2023/07/17 11:42:53;;;;;;;5.40;2.47;;;;;;;;;;5107753;27;20091;-62
2023/07/17 11:45:21;;;;;;;5.13;2.38;;;;;;;;;;5103975;27;20060;-63
2023/07/17 11:47:47;;;;;;;3.47;2.50;;;;;;;;;;5106380;27;20046;-62
2023/07/17 11:50:17;;;;;;;5.10;2.67;;;;;;;;;;5118849;27;20056;-60
2023/07/17 11:52:44;;;;;;;10.80;3.65;;;;;;;;;;5104730;27;20132;-61
2023/07/17 11:55:10;;;;;;;5.43;2.50;;;;;;;;;;5094806;27;20577;-62
2023/07/17 11:57:37;;;;;;;4.93;2.50;;;;;;;;;;5103864;27;20090;-60
2023/07/17 12:00:06;;;;;;;7.25;2.40;;;;;;;;;;5105587;27;20088;-64
2023/07/17 12:02:33;;;;;;;6.18;2.47;;;;;;;;;;5105824;27;20560;-60
2023/07/17 12:05:02;;;;;;;6.00;2.35;;;;;;;;;;5103817;27;20059;-61
2023/07/17 12:07:29;;;;;;;5.18;2.70;;;;;;;;;;5103950;27;20048;-63
2023/07/17 12:09:55;;;;;;;5.30;2.33;;;;;;;;;;5101594;27;20681;-61
2023/07/17 12:12:22;;;;;;;7.40;2.92;;;;;;;;;;5097582;27;20150;-63
2023/07/17 12:14:48;;;;;;;5.72;3.00;;;;;;;;;;5112647;27;20055;-61
2023/07/17 12:17:15;;;;;;;7.93;2.97;;;;;;;;;;5096192;27;20149;-58
2023/07/17 12:19:42;;;;;;;7.07;2.45;;;;;;;;;;5106400;27;20048;-61
2023/07/17 12:22:09;;;;;;;5.70;2.40;;;;;;;;;;5104680;27;20047;-52
2023/07/17 12:24:38;;;;;;;7.13;2.47;;;;;;;;;;5103040;27;20125;-59
2023/07/17 12:27:05;;;;;;;6.18;2.97;;;;;;;;;;5100664;27;20106;-57
2023/07/17 12:29:33;;;;;;;8.25;2.92;;;;;;;;;;5101857;27;20052;-54
2023/07/17 12:31:59;;;;;;;7.63;2.60;;;;;;;;;;5100986;27;20502;-59
2023/07/17 12:34:26;;;;;;;6.95;2.80;;;;;;;;;;5103610;28;20513;-61
2023/07/17 12:36:52;;;;;;;8.38;2.80;;;;;;;;;;5104285;27;20908;-64
2023/07/17 12:39:22;;;;;;;6.70;2.40;;;;;;;;;;5107861;27;20059;-65
2023/07/17 12:41:48;;;;;;;7.70;2.47;;;;;;;;;;5104072;27;20056;-63
2023/07/17 12:44:15;;;;;;;8.05;2.60;;;;;;;;;;5085878;28;20074;-59
2023/07/17 12:46:41;;;;;;;5.28;2.45;;;;;;;;;;5104442;27;20052;-61
2023/07/17 12:49:11;;;;;;;6.40;2.63;;;;;;;;;;5115208;27;20055;-59
2023/07/17 12:51:38;;;;;;;11.55;3.22;;;;;;;;;;5090503;27;20137;-60
2023/07/17 12:54:04;;;;;;;6.20;2.90;;;;;;;;;;5104089;28;20110;-63
2023/07/17 12:56:32;;;;;;;6.63;2.80;;;;;;;;;;5109311;27;20490;-63
2023/07/17 12:59:01;;;;;;;6.47;2.97;;;;;;;;;;5106953;27;20060;-62
2023/07/17 13:01:29;;;;;;;8.55;3.22;;;;;;;;;;5101559;27;20644;-62
2023/07/17 13:03:55;;;;;;;7.22;2.60;;;;;;;;;;5103658;27;20048;-62
2023/07/17 13:06:22;;;;;;;10.45;3.45;;;;;;;;;;5104906;27;20620;-67
2023/07/17 13:08:48;;;;;;;7.45;3.40;;;;;;;;;;5091788;27;20151;-64
2023/07/17 13:11:16;;;;;;;8.27;3.17;;;;;;;;;;5114710;27;20047;-63
2023/07/17 13:13:43;;;;;;;3.70;2.60;;;;;;;;;;5103200;28;20509;-61
2023/07/17 13:16:09;;;;;;;7.93;3.15;;;;;;;;;;5103953;27;20060;-60
2023/07/17 13:18:36;;;;;;;6.53;3.42;;;;;;;;;;5106706;27;20048;-63
2023/07/17 13:21:04;;;;;;;7.07;2.88;;;;;;;;;;5103428;28;20605;-58
2023/07/17 13:23:31;;;;;;;7.65;3.30;;;;;;;;;;5104474;28;20056;-62
2023/07/17 13:25:57;;;;;;;8.13;3.75;;;;;;;;;;5110521;27;20050;-64
2023/07/17 13:28:24;;;;;;;7.75;3.63;;;;;;;;;;5106600;27;20131;-59
2023/07/17 13:30:50;;;;;;;8.73;3.47;;;;;;;;;;5084197;28;20525;-60
2023/07/17 13:33:35;;;;;;;9.05;3.10;;;;;;;;;;5103193;27;20055;-61
2023/07/17 13:36:01;;;;;;;7.07;3.20;;;;;;;;;;5119930;27;20075;-63
2023/07/17 13:38:28;;;;;;;13.10;4.47;;;;;;;;;;5101356;27;20056;-62
2023/07/17 13:40:54;;;;;;;5.47;3.38;;;;;;;;;;5102183;27;20052;-63
2023/07/17 13:43:21;;;;;;;8.32;4.13;;;;;;;;;;5101715;27;20871;-62
2023/07/17 13:45:49;;;;;;;11.95;4.95;;;;;;;;;;5102776;27;20082;-63
2023/07/17 13:48:15;;;;;;;13.13;4.43;;;;;;;;;;5103310;28;20510;-60
2023/07/17 13:50:42;;;;;;;13.20;4.75;;;;;;;;;;5101524;27;20105;-62
2023/07/17 13:53:08;;;;;;;7.75;3.90;;;;;;;;;;5103375;28;20056;-63
2023/07/17 13:55:35;;;;;;;10.65;4.32;;;;;;;;;;5104880;27;20117;-62
2023/07/17 13:58:02;;;;;;;11.68;3.92;;;;;;;;;;5094153;27;20526;-62
2023/07/17 14:00:30;;;;;;;8.68;3.67;;;;;;;;;;5099760;27;20048;-65
2023/07/17 14:02:57;;;;;;;7.85;3.60;;;;;;;;;;5107439;27;20143;-63
2023/07/17 14:05:23;;;;;;;10.35;3.90;;;;;;;;;;5094672;27;20051;-62
2023/07/17 14:07:50;;;;;;;13.15;4.30;;;;;;;;;;5101041;27;20052;-63
2023/07/17 14:10:18;;;;;;;7.78;3.25;;;;;;;;;;5115286;27;20050;-61
2023/07/17 14:12:44;;;;;;;4.78;3.25;;;;;;;;;;5107201;27;20060;-64
2023/07/17 14:15:10;;;;;;;8.25;3.60;;;;;;;;;;5102245;27;20060;-64
2023/07/17 14:17:37;;;;;;;6.95;2.85;;;;;;;;;;5103438;27;20056;-63
2023/07/17 14:20:04;;;;;;;5.97;2.78;;;;;;;;;;5096193;28;20052;-66
2023/07/17 14:22:30;;;;;;;5.05;2.97;;;;;;;;;;5103314;27;20439;-61
2023/07/17 14:24:57;;;;;;;5.03;3.10;;;;;;;;;;5103295;27;20052;-65
2023/07/17 14:27:23;;;;;;;4.13;2.72;;;;;;;;;;5105014;28;20287;-62
2023/07/17 14:29:49;;;;;;;5.85;2.63;;;;;;;;;;5105342;27;20481;-64
2023/07/17 14:32:16;;;;;;;6.32;2.80;;;;;;;;;;5121316;27;20055;-61
2023/07/17 14:34:42;;;;;;;6.80;2.80;;;;;;;;;;5099833;28;20083;-62
2023/07/17 14:37:09;;;;;;;8.05;3.25;;;;;;;;;;5103860;28;20575;-62
2023/07/17 14:39:35;;;;;;;7.57;2.92;;;;;;;;;;5105515;28;20635;-64